Archival Weather

Salzburg

Salzburg, Austria (LOWS)

Report from: Friday, May 26, 2023 5:50 AM CEST
Current time: Tuesday, July 16, 2024 12:03 PM CEST

Current weather – Weather history – Daily summaries
Weather forecast

Present weatherMIFG
Temperature9.0°C (48.2°F)
Wind chill8.5°C (47.2°F)
Dew point9.0°C (48.2°F)
Winds 3 kts (1.5 m/s, 3.5 mph) Vrb
Winds variableWinds variable from East (90°) to South-Southeast (150°)
Visibility6.2 mi. (10 km)
Clouds Few clouds 6,000 ft. (1,829 m)
Altimeter30.21 in.Hg (1023 mB)
Relative humidity100 %
Density altitude-886 ft. (-270 m)
Remarks Fully automated report
No significant changes expected in the next two hours
Flight conditions Visual Meteorological Conditions
Raw dataLOWS 260350Z AUTO 12003KT 090V150 9999 MIFG FEW060 09/09 Q1023 NOSIG
An error has occurred. This application may no longer respond until reloaded. Reload 🗙